首页
METAR-TAF:

METAR-TAF

机场 :

Chanute, 堪薩斯州, 美国

纬度: 37-40-13N, 经度: 095-29-03W, 海拔: 305米

当前天气观测

该预报发布于35分钟前的05:52 UTC
风速7节,风向西
温度 9°C
湿度 61%
气压 1011 hPa
能見度: 16.1公里
天空无云

METAR: KCNU 190552Z AUTO 28007KT 10SM CLR 09/02 A2984 RMK AO2 SLP102 T00940017 10133 20089 402000000 53015

时间: 00:27 (06:27 UTC)

预报

该预报发布于1小时和7分钟前的05:20 UTC
预报有效从19日的 06点(UTC)到 20日的 06点(UTC)
风速6节,风向西
能見度: 10公里
天空无云
从 19日的 1000点(UTC)
风速3节,风向多变
能見度: 10公里
天空无云
从 19日的 1700点(UTC)
风速6节,风向西南
能見度: 10公里
散云层高于25000英尺
从 19日的 2000点(UTC)
风速6节,风向
能見度: 10公里
天空无云

TAF: KCNU 190520Z 1906/2006 28006KT P6SM SKC FM191000 VRB03KT P6SM SKC FM191700 22006KT P6SM SCT250 FM192000 18006KT P6SM SKC

超过4000个机场的气象观测和天气预报(METAR&TAF报告)。

可查询的气象台以黄色和红色小点在地图上表示。

将鼠标移到小点上方,可查看气象台名称。

然后点击查看天气观测和预报。

如需切换地图:点击带黑十字的绿色按钮放大地图;点击带横线的绿色按钮缩小地图;或者点击绿色箭头查看邻近地区的地图。


METAR-TAF: